createdAt,value
2018-05-23T00:00:32.036Z,8.47
2018-05-23T00:02:58.763Z,8.27
2018-05-23T00:05:25.410Z,9.60
2018-05-23T00:07:52.045Z,11.03
2018-05-23T00:10:18.697Z,9.20
2018-05-23T00:12:45.350Z,7.90
2018-05-23T00:15:12.080Z,10.00
2018-05-23T00:17:38.858Z,8.93
2018-05-23T00:20:05.563Z,9.60
2018-05-23T00:22:32.202Z,10.87
2018-05-23T00:24:58.917Z,9.53
2018-05-23T00:27:25.659Z,9.30
2018-05-23T00:29:52.316Z,9.10
2018-05-23T00:32:18.966Z,9.37
2018-05-23T00:34:45.620Z,8.73
2018-05-23T00:37:12.353Z,7.60
2018-05-23T00:39:38.985Z,7.80
2018-05-23T00:42:05.668Z,8.20
2018-05-23T00:44:32.339Z,8.10
2018-05-23T00:46:59.004Z,6.00
2018-05-23T00:49:25.652Z,7.60
2018-05-23T00:51:52.399Z,8.30
2018-05-23T00:54:19.055Z,6.87
2018-05-23T00:56:45.717Z,7.53
2018-05-23T00:59:12.383Z,7.27
2018-05-23T01:01:39.045Z,7.70
2018-05-23T01:04:05.751Z,7.83
2018-05-23T01:06:32.406Z,7.43
2018-05-23T01:08:59.068Z,7.53
2018-05-23T01:11:26.687Z,8.97
2018-05-23T01:13:53.362Z,9.20
2018-05-23T01:16:20.005Z,8.70
2018-05-23T01:18:46.684Z,9.63
2018-05-23T01:21:13.343Z,8.13
2018-05-23T01:23:40.018Z,8.70
2018-05-23T01:26:06.688Z,8.10
2018-05-23T01:28:33.363Z,8.03
2018-05-23T01:31:00.029Z,9.20
2018-05-23T01:33:26.754Z,9.53
2018-05-23T01:35:53.451Z,9.67
2018-05-23T01:38:20.126Z,9.53
2018-05-23T01:40:46.804Z,8.47
2018-05-23T01:43:13.483Z,8.37
2018-05-23T01:45:40.187Z,11.20
2018-05-23T01:48:06.823Z,11.07
2018-05-23T01:50:33.475Z,12.37
2018-05-23T01:53:00.196Z,12.90
2018-05-23T01:55:26.906Z,12.33
2018-05-23T01:57:53.655Z,11.70
2018-05-23T02:00:20.320Z,11.93
2018-05-23T02:02:47.045Z,11.00
2018-05-23T02:05:13.704Z,12.77
2018-05-23T02:07:40.481Z,10.10
2018-05-23T02:10:07.121Z,10.30
2018-05-23T02:12:33.871Z,9.17
2018-05-23T02:15:00.557Z,11.20
2018-05-23T02:17:27.192Z,10.30
2018-05-23T02:19:53.885Z,9.20
2018-05-23T02:22:20.546Z,9.90
2018-05-23T02:24:47.212Z,9.43
2018-05-23T02:27:13.891Z,10.13
2018-05-23T02:29:40.568Z,8.90
2018-05-23T02:32:07.246Z,9.20
2018-05-23T02:34:33.941Z,9.50
2018-05-23T02:37:01.577Z,7.93
2018-05-23T02:39:28.204Z,9.97
2018-05-23T02:41:54.842Z,11.17
2018-05-23T02:44:22.398Z,10.23
2018-05-23T02:46:49.088Z,10.03
2018-05-23T02:49:15.753Z,11.07
2018-05-23T02:51:42.465Z,10.50
2018-05-23T02:54:09.280Z,10.70
2018-05-23T02:56:35.946Z,9.60
2018-05-23T02:59:02.661Z,10.10
2018-05-23T03:01:29.367Z,9.50
2018-05-23T03:03:56.005Z,9.93
2018-05-23T03:06:22.653Z,9.20
2018-05-23T03:08:49.340Z,13.17
2018-05-23T03:11:15.996Z,9.00
2018-05-23T03:13:42.685Z,10.33
2018-05-23T03:16:09.434Z,10.33
2018-05-23T03:18:36.110Z,10.67
2018-05-23T03:21:03.428Z,11.60
2018-05-23T03:23:30.119Z,9.50
2018-05-23T03:25:56.791Z,12.77
2018-05-23T03:28:23.438Z,13.63
2018-05-23T03:30:50.068Z,12.50
2018-05-23T03:33:16.742Z,14.27
2018-05-23T03:35:43.410Z,13.50
2018-05-23T03:38:10.107Z,14.70
2018-05-23T03:40:36.758Z,14.80
2018-05-23T03:43:03.394Z,15.20
2018-05-23T03:45:30.110Z,16.10
2018-05-23T03:47:56.793Z,14.07
2018-05-23T03:50:23.549Z,15.33
2018-05-23T03:52:50.177Z,15.80
2018-05-23T03:55:16.871Z,15.70
2018-05-23T03:57:43.491Z,15.03
2018-05-23T04:00:15.990Z,12.17
2018-05-23T04:02:48.435Z,14.47
2018-05-23T04:05:20.885Z,14.23
2018-05-23T04:07:47.633Z,14.53
2018-05-23T04:10:14.331Z,13.27
2018-05-23T04:12:41.020Z,14.43
2018-05-23T04:15:08.047Z,13.20
2018-05-23T04:17:34.765Z,13.17
2018-05-23T04:20:01.418Z,12.77
2018-05-23T04:22:28.136Z,15.17
2018-05-23T04:24:54.824Z,12.90
2018-05-23T04:27:21.698Z,12.13
2018-05-23T04:29:48.343Z,12.40
2018-05-23T04:32:15.013Z,12.40
2018-05-23T04:34:41.730Z,12.73
2018-05-23T04:37:08.359Z,14.30
2018-05-23T04:39:35.089Z,14.13
2018-05-23T04:42:01.785Z,14.50
2018-05-23T04:44:28.459Z,13.63
2018-05-23T04:46:55.125Z,13.97
2018-05-23T04:49:21.814Z,13.17
2018-05-23T04:51:48.482Z,18.57
2018-05-23T04:54:15.150Z,12.03
2018-05-23T04:56:41.889Z,12.00
2018-05-23T04:59:08.599Z,11.40
2018-05-23T05:01:35.284Z,12.17
2018-05-23T05:04:01.990Z,11.50
2018-05-23T05:06:28.627Z,9.33
2018-05-23T05:08:55.257Z,10.10
2018-05-23T05:11:21.930Z,12.27
2018-05-23T05:13:48.651Z,12.47
2018-05-23T05:16:16.271Z,10.23
2018-05-23T05:18:42.968Z,10.17
2018-05-23T05:21:09.683Z,10.93
2018-05-23T05:23:36.366Z,11.37
2018-05-23T05:26:03.033Z,12.70
2018-05-23T05:28:29.874Z,11.80
2018-05-23T05:30:56.791Z,53.40
2018-05-23T05:33:23.520Z,28.93
2018-05-23T05:35:50.196Z,14.17
2018-05-23T05:38:16.838Z,13.17
2018-05-23T05:40:43.495Z,11.70
2018-05-23T05:43:10.160Z,12.40
2018-05-23T05:45:36.853Z,12.43
2018-05-23T05:48:03.585Z,11.40
2018-05-23T05:50:30.215Z,10.43
2018-05-23T05:52:56.880Z,12.07
2018-05-23T05:55:23.550Z,12.60
2018-05-23T05:57:50.270Z,11.93
2018-05-23T06:00:17.233Z,12.60
2018-05-23T06:02:43.981Z,11.10
2018-05-23T06:05:10.955Z,12.43
2018-05-23T06:07:37.670Z,11.13
2018-05-23T06:10:04.396Z,11.10
2018-05-23T06:12:31.151Z,12.10
2018-05-23T06:14:57.818Z,12.33
2018-05-23T06:17:24.505Z,10.40
2018-05-23T06:19:51.230Z,9.90
2018-05-23T06:22:18.131Z,11.70
2018-05-23T06:24:44.786Z,10.53
2018-05-23T06:27:12.193Z,11.70
2018-05-23T06:29:38.877Z,13.20
2018-05-23T06:32:05.645Z,10.70
2018-05-23T06:34:32.361Z,15.43
2018-05-23T06:36:59.118Z,10.77
2018-05-23T06:39:25.845Z,12.03
2018-05-23T06:41:52.505Z,9.10
2018-05-23T06:44:20.252Z,10.30
2018-05-23T06:46:47.042Z,9.43
2018-05-23T06:49:13.690Z,10.13
2018-05-23T06:51:40.403Z,10.50
2018-05-23T06:54:07.229Z,10.23
2018-05-23T06:56:33.953Z,8.70
2018-05-23T06:59:00.631Z,8.80
2018-05-23T07:01:27.322Z,10.87
2018-05-23T07:03:54.021Z,10.40
2018-05-23T07:06:20.686Z,9.50
2018-05-23T07:08:47.351Z,10.43
2018-05-23T07:11:14.213Z,10.10
2018-05-23T07:13:40.865Z,9.50
2018-05-23T07:16:07.538Z,11.00
2018-05-23T07:18:34.227Z,13.90
2018-05-23T07:21:00.954Z,14.50
2018-05-23T07:23:27.679Z,16.70
2018-05-23T07:25:54.560Z,15.93
2018-05-23T07:28:21.404Z,15.77
2018-05-23T07:30:48.145Z,13.90
2018-05-23T07:33:14.852Z,13.67
2018-05-23T07:35:41.554Z,14.70
2018-05-23T07:38:08.218Z,11.03
2018-05-23T07:40:35.326Z,13.33
2018-05-23T07:43:05.384Z,11.80
2018-05-23T07:45:32.131Z,12.53
2018-05-23T07:47:58.977Z,11.00
2018-05-23T07:50:26.772Z,10.60
2018-05-23T07:52:53.709Z,20.03
2018-05-23T07:55:21.941Z,10.80
2018-05-23T07:57:52.345Z,10.33
2018-05-23T08:00:19.245Z,10.50
2018-05-23T08:05:17.725Z,9.97
2018-05-23T08:07:44.842Z,10.90
2018-05-23T08:10:11.505Z,11.90
2018-05-23T08:12:38.314Z,10.83
2018-05-23T08:15:05.726Z,9.97
2018-05-23T08:17:33.530Z,9.30
2018-05-23T08:20:00.386Z,10.73
2018-05-23T08:22:27.115Z,10.20
2018-05-23T08:24:53.781Z,9.63
2018-05-23T08:27:20.467Z,9.40
2018-05-23T08:32:18.558Z,9.80
2018-05-23T08:34:45.286Z,9.77
2018-05-23T08:37:12.059Z,10.50
2018-05-23T08:39:38.777Z,10.67
2018-05-23T08:42:05.411Z,10.27
2018-05-23T08:44:32.284Z,10.50
2018-05-23T08:46:59.001Z,10.10
2018-05-23T08:49:26.410Z,10.43
2018-05-23T08:51:53.515Z,9.27
2018-05-23T08:54:20.447Z,9.90
2018-05-23T08:56:50.725Z,11.23
2018-05-23T08:59:17.544Z,10.87
2018-05-23T09:01:44.317Z,9.90
2018-05-23T09:04:11.052Z,10.00
2018-05-23T09:06:37.697Z,11.67
2018-05-23T09:09:05.338Z,11.20
2018-05-23T09:11:31.985Z,11.60
2018-05-23T09:13:58.994Z,9.90
2018-05-23T09:16:25.643Z,10.40
2018-05-23T09:18:52.288Z,12.20
2018-05-23T09:21:18.982Z,12.80
2018-05-23T09:23:45.688Z,14.40
2018-05-23T09:26:12.366Z,13.30
2018-05-23T09:28:39.089Z,14.30
2018-05-23T09:31:05.831Z,14.97
2018-05-23T09:33:32.466Z,13.77
2018-05-23T09:35:59.160Z,17.07
2018-05-23T09:38:25.777Z,16.67
2018-05-23T09:40:53.296Z,16.90
2018-05-23T09:43:19.947Z,15.87
2018-05-23T09:45:46.587Z,17.37
2018-05-23T09:48:13.257Z,13.33
2018-05-23T09:50:39.909Z,15.23
2018-05-23T09:53:06.577Z,15.83
2018-05-23T09:55:33.228Z,15.50
2018-05-23T09:57:59.856Z,15.00
2018-05-23T10:00:26.522Z,20.47
2018-05-23T10:02:53.213Z,18.67
2018-05-23T10:05:19.892Z,19.03
2018-05-23T10:07:46.577Z,18.70
2018-05-23T10:10:13.247Z,20.07
2018-05-23T10:12:39.899Z,18.17
2018-05-23T10:15:06.552Z,12.67
2018-05-23T10:17:33.226Z,18.37
2018-05-23T10:19:59.905Z,15.87
2018-05-23T10:22:26.584Z,14.60
2018-05-23T10:24:53.250Z,15.10
2018-05-23T10:27:20.005Z,13.53
2018-05-23T10:29:46.656Z,15.97
2018-05-23T10:32:13.388Z,13.93
2018-05-23T10:34:40.140Z,13.40
2018-05-23T10:37:06.868Z,15.33
2018-05-23T10:39:33.591Z,14.20
2018-05-23T10:42:00.288Z,13.77
2018-05-23T10:44:26.949Z,13.57
2018-05-23T10:46:53.584Z,13.43
2018-05-23T10:49:20.239Z,13.77
2018-05-23T10:51:46.953Z,14.83
2018-05-23T10:54:13.700Z,12.20
2018-05-23T10:56:40.344Z,14.60
2018-05-23T10:59:07.019Z,13.60
2018-05-23T11:01:33.743Z,13.70
2018-05-23T11:04:00.981Z,15.07
2018-05-23T11:06:27.666Z,17.27
2018-05-23T11:08:54.449Z,17.63
2018-05-23T11:11:21.055Z,18.53
2018-05-23T11:13:47.690Z,18.97
2018-05-23T11:16:14.430Z,15.73
2018-05-23T11:18:41.069Z,17.90
2018-05-23T11:21:07.700Z,17.80
2018-05-23T11:23:34.425Z,15.57
2018-05-23T11:26:01.050Z,15.57
2018-05-23T11:28:27.690Z,15.20
2018-05-23T11:30:54.368Z,18.30
2018-05-23T11:33:21.011Z,19.10
2018-05-23T11:35:47.720Z,16.67
2018-05-23T11:38:14.376Z,17.00
2018-05-23T11:40:41.053Z,18.40
2018-05-23T11:43:07.733Z,19.87
2018-05-23T11:45:34.393Z,19.50
2018-05-23T11:48:01.309Z,20.47
2018-05-23T11:50:28.063Z,22.53
2018-05-23T11:52:54.759Z,23.53
2018-05-23T11:55:21.416Z,24.07
2018-05-23T11:57:48.060Z,22.40
2018-05-23T12:00:14.821Z,21.70
2018-05-23T12:02:41.432Z,22.00
2018-05-23T12:05:08.072Z,17.90
2018-05-23T12:07:34.749Z,20.20
2018-05-23T12:10:01.371Z,17.67
2018-05-23T12:12:28.013Z,16.83
2018-05-23T12:14:54.674Z,17.60
2018-05-23T12:17:21.518Z,17.53
2018-05-23T12:19:48.287Z,17.40
2018-05-23T12:22:14.939Z,16.90
2018-05-23T12:24:41.650Z,16.93
2018-05-23T12:27:08.317Z,16.47
2018-05-23T12:29:34.948Z,14.70
2018-05-23T12:32:01.644Z,15.67
2018-05-23T12:34:28.289Z,15.10
2018-05-23T12:36:54.958Z,17.13
2018-05-23T12:39:22.184Z,14.67
2018-05-23T12:41:48.831Z,13.80
2018-05-23T12:44:15.751Z,13.87
2018-05-23T12:46:42.462Z,13.40
2018-05-23T12:49:09.112Z,11.60
2018-05-23T12:51:35.787Z,12.27
2018-05-23T12:54:02.469Z,12.40
2018-05-23T12:56:29.146Z,13.03
2018-05-23T12:58:55.829Z,13.97
2018-05-23T13:01:22.613Z,11.70
2018-05-23T13:03:49.292Z,11.20
2018-05-23T13:06:16.001Z,11.63
2018-05-23T13:08:42.670Z,10.60
2018-05-23T13:11:09.343Z,10.07
2018-05-23T13:13:35.995Z,10.83
2018-05-23T13:16:02.669Z,10.43
2018-05-23T13:18:29.301Z,10.70
2018-05-23T13:20:55.943Z,12.13
2018-05-23T13:23:22.661Z,10.80
2018-05-23T13:25:49.365Z,13.60
2018-05-23T13:28:16.052Z,12.03
2018-05-23T13:30:43.029Z,12.10
2018-05-23T13:33:09.721Z,12.77
2018-05-23T13:35:36.369Z,11.20
2018-05-23T13:38:03.059Z,13.80
2018-05-23T13:40:29.737Z,12.27
2018-05-23T13:42:56.417Z,12.17
2018-05-23T13:45:23.098Z,11.03
2018-05-23T13:47:49.823Z,11.30
2018-05-23T13:50:16.545Z,10.67
2018-05-23T13:52:43.220Z,11.37
2018-05-23T13:55:10.026Z,11.60
2018-05-23T13:57:36.624Z,12.23
2018-05-23T14:00:03.327Z,10.30
2018-05-23T14:02:30.029Z,10.87
2018-05-23T14:04:56.662Z,12.00
2018-05-23T14:07:23.322Z,9.93
2018-05-23T14:09:50.045Z,12.83
2018-05-23T14:12:16.642Z,14.37
2018-05-23T14:14:43.296Z,13.07
2018-05-23T14:17:09.956Z,11.17
2018-05-23T14:19:36.619Z,10.93
2018-05-23T14:22:03.271Z,11.73
2018-05-23T14:24:29.937Z,11.77
2018-05-23T14:26:56.594Z,12.70
2018-05-23T14:29:23.252Z,13.90
2018-05-23T14:31:49.932Z,11.57
2018-05-23T14:34:16.630Z,11.80
2018-05-23T14:36:43.284Z,10.03
2018-05-23T14:39:10.014Z,11.50
2018-05-23T14:41:36.685Z,12.93
2018-05-23T14:44:03.390Z,11.23
2018-05-23T14:46:30.053Z,9.63
2018-05-23T14:48:56.689Z,8.80
2018-05-23T14:51:23.347Z,10.43
2018-05-23T14:53:50.021Z,10.03
2018-05-23T14:56:16.817Z,9.60
2018-05-23T14:58:43.395Z,11.47
2018-05-23T15:01:10.125Z,10.77
2018-05-23T15:03:36.906Z,11.30
2018-05-23T15:06:03.590Z,11.20
2018-05-23T15:08:30.339Z,11.43
2018-05-23T15:10:57.301Z,12.27
2018-05-23T15:13:24.045Z,13.27
2018-05-23T15:15:50.721Z,14.60
2018-05-23T15:18:17.356Z,13.63
2018-05-23T15:20:44.806Z,12.50
2018-05-23T15:23:11.474Z,12.20
2018-05-23T15:25:38.162Z,12.40
2018-05-23T15:28:05.760Z,11.73
2018-05-23T15:30:32.463Z,12.80
2018-05-23T15:32:59.089Z,12.17
2018-05-23T15:35:25.771Z,12.30
2018-05-23T15:37:52.434Z,12.67
2018-05-23T15:40:19.097Z,11.97
2018-05-23T15:42:45.741Z,12.00
2018-05-23T15:45:12.413Z,10.87
2018-05-23T15:47:39.169Z,11.47
2018-05-23T15:50:06.050Z,11.43
2018-05-23T15:52:32.683Z,10.80
2018-05-23T15:54:59.356Z,11.77
2018-05-23T15:57:26.045Z,11.80
2018-05-23T15:59:52.732Z,13.00
2018-05-23T16:02:19.430Z,13.43
2018-05-23T16:04:46.211Z,11.20
2018-05-23T16:07:12.864Z,11.30
2018-05-23T16:09:39.519Z,11.60
2018-05-23T16:12:06.165Z,11.03
2018-05-23T16:14:32.855Z,13.13
2018-05-23T16:16:59.577Z,12.43
2018-05-23T16:19:26.262Z,13.40
2018-05-23T16:21:52.919Z,12.17
2018-05-23T16:24:19.718Z,12.27
2018-05-23T16:26:46.363Z,12.03
2018-05-23T16:29:13.018Z,12.27
2018-05-23T16:31:39.701Z,13.00
2018-05-23T16:34:06.357Z,11.60
2018-05-23T16:36:33.081Z,12.93
2018-05-23T16:38:59.747Z,12.50
2018-05-23T16:41:26.423Z,11.60
2018-05-23T16:43:53.104Z,14.53
2018-05-23T16:46:19.814Z,12.93
2018-05-23T16:48:46.542Z,13.20
2018-05-23T16:51:13.256Z,13.63
2018-05-23T16:53:39.961Z,13.70
2018-05-23T16:56:06.649Z,12.67
2018-05-23T16:58:33.309Z,12.50
2018-05-23T17:01:00.088Z,13.80
2018-05-23T17:03:26.824Z,12.77
2018-05-23T17:05:53.586Z,11.13
2018-05-23T17:08:20.338Z,12.40
2018-05-23T17:10:47.458Z,12.10
2018-05-23T17:13:14.294Z,12.63
2018-05-23T17:15:41.002Z,15.70
2018-05-23T17:18:07.716Z,11.93
2018-05-23T17:20:34.446Z,11.47
2018-05-23T17:23:01.113Z,11.43
2018-05-23T17:25:27.980Z,13.40
2018-05-23T17:27:54.720Z,12.13
2018-05-23T17:30:21.466Z,12.20
2018-05-23T17:32:48.174Z,12.60
2018-05-23T17:35:15.526Z,9.63
2018-05-23T17:37:42.194Z,10.13
2018-05-23T17:40:08.973Z,11.03
2018-05-23T17:42:35.680Z,12.03
2018-05-23T17:45:02.365Z,10.10
2018-05-23T17:47:29.051Z,11.70
2018-05-23T17:49:55.754Z,10.33
2018-05-23T17:52:22.484Z,10.70
2018-05-23T17:54:49.187Z,10.80
2018-05-23T17:57:15.996Z,11.20
2018-05-23T17:59:42.906Z,11.87
2018-05-23T18:02:09.597Z,11.30
2018-05-23T18:04:36.277Z,12.10
2018-05-23T18:07:02.959Z,10.90
2018-05-23T18:09:29.671Z,11.13
2018-05-23T18:11:56.319Z,12.50
2018-05-23T18:14:23.065Z,11.87
2018-05-23T18:16:49.728Z,11.93
2018-05-23T18:19:16.387Z,13.90
2018-05-23T18:21:43.076Z,12.53
2018-05-23T18:24:09.752Z,12.80
2018-05-23T18:26:36.442Z,11.57
2018-05-23T18:29:03.114Z,13.30
2018-05-23T18:31:29.813Z,11.50
2018-05-23T18:33:56.524Z,13.43
2018-05-23T18:36:23.164Z,14.10
2018-05-23T18:38:49.832Z,12.23
2018-05-23T18:41:16.839Z,12.40
2018-05-23T18:43:43.742Z,11.93
2018-05-23T18:46:10.590Z,10.97
2018-05-23T18:48:38.216Z,9.00
2018-05-23T18:51:04.930Z,8.30
2018-05-23T18:53:31.691Z,7.03
2018-05-23T18:55:58.520Z,7.70
2018-05-23T18:58:25.206Z,5.83
2018-05-23T19:00:51.932Z,6.10
2018-05-23T19:03:18.650Z,5.43
2018-05-23T19:05:45.331Z,5.13
2018-05-23T19:08:12.827Z,4.93
2018-05-23T19:10:39.514Z,5.80
2018-05-23T19:13:06.141Z,6.77
2018-05-23T19:15:32.839Z,4.80
2018-05-23T19:17:59.475Z,5.63
2018-05-23T19:20:26.129Z,4.83
2018-05-23T19:22:52.760Z,5.30
2018-05-23T19:25:19.464Z,5.40
2018-05-23T19:27:46.104Z,5.90
2018-05-23T19:30:12.818Z,6.70
2018-05-23T19:32:39.456Z,5.17
2018-05-23T19:35:06.086Z,5.20
2018-05-23T19:37:33.579Z,6.00
2018-05-23T19:40:00.723Z,5.17
2018-05-23T19:42:27.374Z,5.43
2018-05-23T19:44:54.169Z,5.83
2018-05-23T19:47:22.941Z,6.03
2018-05-23T19:49:49.540Z,5.63
2018-05-23T19:52:16.197Z,5.93
2018-05-23T19:54:42.878Z,6.30
2018-05-23T19:57:09.535Z,6.60
2018-05-23T19:59:36.198Z,6.57
2018-05-23T20:02:02.891Z,5.93
2018-05-23T20:04:29.571Z,7.47
2018-05-23T20:06:56.260Z,6.10
2018-05-23T20:09:22.986Z,5.93
2018-05-23T20:11:49.730Z,6.60
2018-05-23T20:14:16.559Z,7.47
2018-05-23T20:16:43.195Z,7.13
2018-05-23T20:19:09.923Z,6.07
2018-05-23T20:21:36.642Z,7.13
2018-05-23T20:24:03.337Z,7.10
2018-05-23T20:26:30.085Z,7.13
2018-05-23T20:28:56.948Z,6.20
2018-05-23T20:31:23.801Z,7.70
2018-05-23T20:33:50.839Z,6.87
2018-05-23T20:36:20.069Z,6.70
2018-05-23T20:38:46.870Z,7.93
2018-05-23T20:41:13.642Z,6.40
2018-05-23T20:43:40.384Z,6.87
2018-05-23T20:46:07.093Z,7.63
2018-05-23T20:48:33.810Z,7.87
2018-05-23T20:51:01.709Z,6.57
2018-05-23T20:53:28.857Z,6.97
2018-05-23T20:55:55.623Z,7.70
2018-05-23T20:58:23.686Z,7.90
2018-05-23T21:00:50.658Z,7.60
2018-05-23T21:03:17.558Z,7.93
2018-05-23T21:05:44.339Z,8.07
2018-05-23T21:08:11.053Z,7.50
2018-05-23T21:10:37.725Z,8.90
2018-05-23T21:13:07.850Z,9.33
2018-05-23T21:15:34.815Z,8.47
2018-05-23T21:18:01.808Z,7.90
2018-05-23T21:20:28.728Z,8.53
2018-05-23T21:22:56.220Z,8.67
2018-05-23T21:25:23.044Z,8.40
2018-05-23T21:27:50.205Z,7.27
2018-05-23T21:30:16.954Z,7.83
2018-05-23T21:32:43.743Z,8.73
2018-05-23T21:35:10.620Z,8.57
2018-05-23T21:37:37.534Z,9.47
2018-05-23T21:40:04.295Z,8.43
2018-05-23T21:42:31.610Z,8.67
2018-05-23T21:44:58.419Z,9.33
2018-05-23T21:47:25.482Z,8.67
2018-05-23T21:49:52.382Z,10.50
2018-05-23T21:52:19.179Z,10.00
2018-05-23T21:54:47.402Z,9.67
2018-05-23T21:57:14.178Z,10.23
2018-05-23T21:59:40.845Z,8.63
2018-05-23T22:02:07.514Z,9.60
2018-05-23T22:04:34.285Z,8.87
2018-05-23T22:07:01.867Z,9.43
2018-05-23T22:09:31.847Z,9.80
2018-05-23T22:14:32.170Z,9.00
2018-05-23T22:17:01.297Z,9.23
2018-05-23T22:19:29.829Z,9.77
2018-05-23T22:22:02.238Z,10.67
2018-05-23T22:24:32.315Z,9.57
2018-05-23T22:27:00.639Z,10.30
2018-05-23T22:29:27.710Z,11.00
2018-05-23T22:31:54.737Z,11.00
2018-05-23T22:34:21.692Z,10.90
2018-05-23T22:36:48.469Z,11.23
2018-05-23T22:39:15.379Z,11.70
2018-05-23T22:41:42.337Z,11.80
2018-05-23T22:44:09.017Z,14.67
2018-05-23T22:46:36.607Z,11.63
2018-05-23T22:49:06.342Z,11.60
2018-05-23T22:51:36.298Z,12.57
2018-05-23T22:54:04.668Z,11.90
2018-05-23T22:56:31.350Z,12.00
2018-05-23T23:01:46.846Z,12.13
2018-05-23T23:04:14.252Z,12.73
2018-05-23T23:06:40.989Z,13.00
2018-05-23T23:09:07.734Z,13.83
2018-05-23T23:11:34.444Z,13.67
2018-05-23T23:14:01.157Z,15.00
2018-05-23T23:16:27.826Z,13.90
2018-05-23T23:18:54.739Z,15.77
2018-05-23T23:21:38.895Z,14.70
2018-05-23T23:24:06.981Z,14.67
2018-05-23T23:26:38.092Z,14.30
2018-05-23T23:29:05.522Z,14.27
2018-05-23T23:31:32.302Z,14.73
2018-05-23T23:34:03.608Z,15.93
2018-05-23T23:42:05.091Z,15.83
2018-05-23T23:44:32.012Z,16.90
2018-05-23T23:47:06.207Z,14.33
2018-05-23T23:49:33.103Z,15.57
2018-05-23T23:54:34.005Z,16.17
2018-05-23T23:57:00.919Z,15.03
2018-05-23T23:59:31.947Z,17.20
